Time;durP1;ratioP1;P1;durP2;ratioP2;P2;SDS_P1;SDS_P2;PMS_P1;PMS_P2;Temp;Humidity;BMP_temperature;BMP_pressure;BME280_temperature;BME280_humidity;BME280_pressure;Samples;Min_cycle;Max_cycle;Signal;HPM_P1;HPM_P2
2021/01/16 00:01:06;;;;;;;61.35;36.60;;;64.40;2201.60;;;;;;4934933;29;20043;-66
2021/01/16 00:03:32;;;;;;;76.07;45.88;;;64.40;2201.60;;;;;;4931099;29;20058;-66
2021/01/16 00:06:00;;;;;;;68.10;37.60;;;64.50;2201.60;;;;;;4931008;29;20913;-66
2021/01/16 00:08:31;;;;;;;70.07;40.60;;;64.50;2201.60;;;;;;4934761;29;20031;-66
2021/01/16 00:10:59;;;;;;;76.32;42.58;;;64.50;2201.60;;;;;;4935616;29;20042;-66
2021/01/16 00:13:26;;;;;;;82.85;46.15;;;64.50;2201.60;;;;;;4935436;29;20075;-66
2021/01/16 00:15:53;;;;;;;84.05;44.97;;;64.50;2201.60;;;;;;4934672;29;20498;-66
2021/01/16 00:18:21;;;;;;;95.22;49.90;;;64.50;2201.60;;;;;;4935585;29;20490;-66
2021/01/16 00:20:49;;;;;;;82.32;46.03;;;64.50;2201.60;;;;;;4936346;29;20047;-67
2021/01/16 00:23:15;;;;;;;75.80;42.95;;;64.60;2201.60;;;;;;4936452;29;20027;-66
2021/01/16 00:25:42;;;;;;;79.30;44.03;;;64.60;2201.60;;;;;;4935455;29;20059;-66
2021/01/16 00:28:16;;;;;;;84.40;47.05;;;64.60;2201.60;;;;;;4935036;29;20024;-66
2021/01/16 00:30:41;;;;;;;88.93;48.38;;;64.60;2201.60;;;;;;4912178;29;20039;-65
2021/01/16 00:33:19;;;;;;;90.80;51.25;;;64.60;2201.60;;;;;;4933564;29;20102;-66
2021/01/16 00:35:45;;;;;;;104.40;54.03;;;64.60;2201.60;;;;;;4935644;29;20166;-66
2021/01/16 00:38:12;;;;;;;105.32;56.50;;;64.60;2201.60;;;;;;4930890;29;20031;-66
2021/01/16 00:40:38;;;;;;;95.47;50.63;;;64.70;2201.60;;;;;;4935294;29;20086;-67
2021/01/16 00:43:09;;;;;;;98.82;50.03;;;64.70;2201.60;;;;;;4934822;29;20032;-66
2021/01/16 00:45:35;;;;;;;85.85;48.22;;;64.70;2201.60;;;;;;4936001;29;20036;-67
2021/01/16 00:48:13;;;;;;;92.10;50.53;;;64.70;2201.60;;;;;;4935106;29;20039;-66
2021/01/16 00:50:40;;;;;;;99.80;49.92;;;64.70;2201.60;;;;;;4934882;29;20036;-67
2021/01/16 00:53:06;;;;;;;108.47;54.75;;;64.80;2201.60;;;;;;4935961;29;20028;-66
2021/01/16 00:55:31;;;;;;;113.63;57.20;;;64.80;2201.60;;;;;;4936028;29;20028;-66
2021/01/16 00:57:57;;;;;;;114.82;57.25;;;64.90;2201.60;;;;;;4932985;29;20039;-66
2021/01/16 01:00:27;;;;;;;87.30;46.97;;;64.90;2201.60;;;;;;4935956;29;20502;-66
2021/01/16 01:02:53;;;;;;;92.60;46.25;;;64.90;2201.60;;;;;;4935757;29;20024;-66
2021/01/16 01:05:21;;;;;;;92.47;49.20;;;64.90;2201.60;;;;;;4935945;29;20035;-67
2021/01/16 01:07:51;;;;;;;100.20;52.00;;;89.60;2201.60;;;;;;4932972;29;20020;-66
2021/01/16 01:10:21;;;;;;;94.78;50.70;;;64.90;2201.60;;;;;;4935859;29;20036;-66
2021/01/16 01:12:49;;;;;;;87.18;47.53;;;64.90;2201.60;;;;;;4935123;29;20497;-66
2021/01/16 01:15:15;;;;;;;93.78;50.45;;;89.60;2201.60;;;;;;4935805;29;20401;-67
2021/01/16 01:17:40;;;;;;;79.97;44.88;;;89.60;2201.60;;;;;;4933341;29;20020;-66
2021/01/16 01:20:07;;;;;;;82.50;44.08;;;89.60;2201.60;;;;;;4934929;29;20118;-66
2021/01/16 01:22:37;;;;;;;79.00;43.92;;;89.60;2201.60;;;;;;4935498;29;20545;-66
2021/01/16 01:25:05;;;;;;;92.10;49.33;;;89.60;2201.60;;;;;;4934825;29;20111;-64
2021/01/16 01:27:33;;;;;;;95.88;49.90;;;89.60;2201.60;;;;;;4934759;29;20032;-66
2021/01/16 01:29:59;;;;;;;80.10;44.20;;;89.60;2201.60;;;;;;4935415;29;20091;-66
2021/01/16 01:32:24;;;;;;;78.68;44.08;;;89.60;2201.60;;;;;;4934967;29;20024;-66
2021/01/16 01:34:50;;;;;;;83.07;44.45;;;89.60;2201.60;;;;;;4935029;29;20027;-68
2021/01/16 01:37:16;;;;;;;84.15;46.60;;;89.60;2201.60;;;;;;4936044;29;20031;-66
2021/01/16 01:39:42;;;;;;;78.05;44.15;;;89.60;2201.60;;;;;;4935520;29;20107;-67
2021/01/16 01:42:14;;;;;;;77.30;42.35;;;64.90;2201.60;;;;;;4934329;29;20148;-66
2021/01/16 01:44:40;;;;;;;72.18;41.38;;;64.90;2201.60;;;;;;4934522;29;20060;-66
2021/01/16 01:47:06;;;;;;;76.13;42.63;;;64.90;2201.60;;;;;;4935080;29;20067;-66
2021/01/16 01:49:31;;;;;;;70.32;40.65;;;64.90;2201.60;;;;;;4934780;29;20474;-66
2021/01/16 01:51:58;;;;;;;77.00;41.65;;;64.80;2201.60;;;;;;4934311;29;20032;-66
2021/01/16 01:54:25;;;;;;;73.55;41.08;;;64.80;2201.60;;;;;;4935001;29;20016;-66
2021/01/16 01:56:54;;;;;;;73.72;43.22;;;64.80;2201.60;;;;;;4933771;29;20035;-67
2021/01/16 01:59:22;;;;;;;75.40;42.53;;;64.70;2201.60;;;;;;4933923;29;20138;-66
2021/01/16 02:01:50;;;;;;;77.82;42.53;;;64.70;2201.60;;;;;;4934242;29;20537;-67
2021/01/16 02:04:18;;;;;;;74.30;42.17;;;64.50;2201.60;;;;;;4935004;29;20023;-66
2021/01/16 02:06:44;;;;;;;80.07;44.72;;;64.40;2201.60;;;;;;4932266;29;20173;-66
2021/01/16 02:09:11;;;;;;;86.10;47.13;;;64.40;2201.60;;;;;;4934172;29;20016;-66
2021/01/16 02:11:37;;;;;;;75.97;43.40;;;64.30;2201.60;;;;;;4931849;29;20486;-66
2021/01/16 02:14:03;;;;;;;77.90;45.08;;;64.20;2201.60;;;;;;4917841;29;20042;-66
2021/01/16 02:16:44;;;;;;;75.90;43.08;;;64.10;2201.60;;;;;;4935063;29;20419;-65
2021/01/16 02:19:12;;;;;;;74.38;43.30;;;64.10;2201.60;;;;;;4933985;29;20028;-66
2021/01/16 02:21:39;;;;;;;73.50;42.10;;;64.10;2201.60;;;;;;4933433;29;20027;-66
2021/01/16 02:24:12;;;;;;;67.93;41.05;;;64.00;2201.60;;;;;;4933610;29;20118;-66
2021/01/16 02:26:54;;;;;;;67.50;42.00;;;64.10;2201.60;;;;;;4934646;29;20139;-66
2021/01/16 02:29:20;;;;;;;74.55;40.88;;;64.20;2201.60;;;;;;4933741;29;20028;-66
2021/01/16 02:32:00;;;;;;;65.30;38.83;;;64.20;2201.60;;;;;;4933808;29;20024;-66
2021/01/16 02:34:39;;;;;;;71.53;42.25;;;64.20;2201.60;;;;;;4922312;29;20035;-66
2021/01/16 02:37:23;;;;;;;67.90;39.22;;;64.20;2201.60;;;;;;4933094;29;20038;-66
2021/01/16 02:39:58;;;;;;;;;;;64.20;2201.60;;;;;;4929639;29;20028;-69
2021/01/16 02:42:51;;;;;;;74.82;40.22;;;64.30;2201.60;;;;;;4931924;29;19919;-72
2021/01/16 02:45:22;;;;;;;74.75;41.72;;;64.40;2201.60;;;;;;4937590;29;20040;-66
2021/01/16 02:48:16;;;;;;;70.18;38.92;;;64.40;2201.60;;;;;;4938401;29;20043;-65
2021/01/16 02:50:49;;;;;;;76.10;43.55;;;64.40;2201.60;;;;;;4938747;29;20059;-67
2021/01/16 02:53:18;;;;;;;69.32;39.28;;;64.40;2201.60;;;;;;4938108;29;20146;-67
2021/01/16 02:55:44;;;;;;;69.15;37.40;;;64.40;2201.60;;;;;;4936982;29;20032;-66
2021/01/16 02:58:10;;;;;;;70.68;39.13;;;64.40;2201.60;;;;;;4936899;29;20098;-66
2021/01/16 03:00:36;;;;;;;69.75;38.97;;;64.30;2201.60;;;;;;4936878;29;20024;-66
2021/01/16 03:03:01;;;;;;;69.63;39.72;;;64.40;2201.60;;;;;;4936643;29;20126;-65
2021/01/16 03:05:27;;;;;;;73.35;40.17;;;64.40;2201.60;;;;;;4938118;29;20036;-66
2021/01/16 03:07:55;;;;;;;73.13;40.80;;;64.50;2201.60;;;;;;4936250;29;20102;-66
2021/01/16 03:10:24;;;;;;;71.88;39.10;;;64.60;2201.60;;;;;;4936848;29;20043;-66
2021/01/16 03:12:52;;;;;;;67.57;38.45;;;64.70;2201.60;;;;;;4937491;29;20036;-67
2021/01/16 03:15:19;;;;;;;71.97;40.45;;;64.70;2201.60;;;;;;4937080;29;20497;-66
2021/01/16 03:17:45;;;;;;;75.13;42.03;;;64.80;2201.60;;;;;;4937845;29;20052;-67
2021/01/16 03:20:13;;;;;;;91.53;46.38;;;64.90;2201.60;;;;;;4937521;29;20561;-66
2021/01/16 03:22:39;;;;;;;83.80;44.10;;;64.90;2201.60;;;;;;4934166;29;20028;-66
2021/01/16 03:25:05;;;;;;;77.57;41.53;;;89.60;2201.60;;;;;;4936601;29;20044;-66
2021/01/16 03:27:31;;;;;;;73.55;40.25;;;89.60;2201.60;;;;;;4937700;29;20027;-66
2021/01/16 03:29:56;;;;;;;81.95;43.45;;;89.70;2176.00;;;;;;4936403;29;20438;-66
2021/01/16 03:32:23;;;;;;;78.20;40.10;;;89.70;2176.00;;;;;;4936872;29;20031;-66
2021/01/16 03:34:49;;;;;;;80.40;42.03;;;89.70;2176.00;;;;;;4937358;29;20426;-66
2021/01/16 03:37:17;;;;;;;82.07;43.92;;;89.80;2176.00;;;;;;4935811;29;20047;-66
2021/01/16 03:39:43;;;;;;;78.70;41.65;;;89.80;2176.00;;;;;;4936460;29;20032;-66
2021/01/16 03:42:09;;;;;;;79.60;40.33;;;89.90;2176.00;;;;;;4937219;29;20031;-67
2021/01/16 03:44:36;;;;;;;77.22;39.55;;;89.90;2176.00;;;;;;4938642;29;20098;-67
2021/01/16 03:47:03;;;;;;;68.05;37.67;;;89.90;2176.00;;;;;;4936607;29;20047;-66
2021/01/16 03:49:29;;;;;;;64.40;35.50;;;90.00;2176.00;;;;;;4936571;29;20036;-66
2021/01/16 03:51:55;;;;;;;67.18;35.85;;;90.00;2176.00;;;;;;4936857;29;20035;-66
2021/01/16 03:54:21;;;;;;;72.30;36.20;;;90.10;2176.00;;;;;;4936966;29;20386;-66
2021/01/16 03:56:46;;;;;;;68.88;35.70;;;90.00;2176.00;;;;;;4935003;29;20114;-66
2021/01/16 03:59:12;;;;;;;56.95;32.60;;;90.10;2176.00;;;;;;4936183;29;20048;-66
2021/01/16 04:01:38;;;;;;;52.72;30.58;;;90.10;2176.00;;;;;;4936428;29;20425;-67
2021/01/16 04:04:04;;;;;;;55.72;31.00;;;90.10;2176.00;;;;;;4935665;29;20078;-66
2021/01/16 04:06:30;;;;;;;53.90;29.80;;;90.10;2176.00;;;;;;4934671;29;20035;-67
2021/01/16 04:08:56;;;;;;;51.25;28.75;;;90.10;2176.00;;;;;;4919493;29;20667;-65
2021/01/16 04:11:22;;;;;;;53.85;29.45;;;90.10;2176.00;;;;;;4936530;29;20042;-66
2021/01/16 04:13:48;;;;;;;57.35;30.30;;;90.10;2176.00;;;;;;4931559;29;20078;-66
2021/01/16 04:16:14;;;;;;;56.15;30.70;;;90.10;2176.00;;;;;;4914826;29;20106;-67
2021/01/16 04:18:40;;;;;;;59.88;30.33;;;90.10;2176.00;;;;;;4936721;29;20110;-66
2021/01/16 04:21:06;;;;;;;50.28;28.23;;;90.00;2176.00;;;;;;4936709;29;20019;-66
2021/01/16 04:23:32;;;;;;;57.22;30.05;;;90.00;2176.00;;;;;;4928753;29;20111;-73
2021/01/16 04:25:58;;;;;;;56.35;30.27;;;90.10;2176.00;;;;;;4912712;29;20816;-67
2021/01/16 04:28:24;;;;;;;51.15;28.45;;;90.10;2176.00;;;;;;4899294;29;20031;-68
2021/01/16 04:30:50;;;;;;;49.47;27.17;;;89.90;2176.00;;;;;;4900700;28;20113;-73
2021/01/16 04:33:17;;;;;;;51.60;29.80;;;90.10;2176.00;;;;;;4954724;28;20023;-72
2021/01/16 04:35:43;;;;;;;56.40;30.30;;;90.10;2176.00;;;;;;4885865;29;20051;-75
2021/01/16 04:38:08;;;;;;;62.10;32.30;;;90.10;2176.00;;;;;;4908419;29;20072;-74
2021/01/16 04:40:34;;;;;;;58.70;31.60;;;90.00;2176.00;;;;;;4903550;29;20144;-69
2021/01/16 04:43:03;;;;;;;64.38;34.13;;;90.10;2176.00;;;;;;4904005;29;20039;-72
2021/01/16 04:45:31;;;;;;;64.15;33.28;;;90.20;2176.00;;;;;;4955093;28;20082;-71
2021/01/16 04:47:59;;;;;;;57.00;31.67;;;90.20;2176.00;;;;;;4935524;29;20028;-70
2021/01/16 04:50:49;;;;;;;49.33;28.77;;;90.20;2176.00;;;;;;4941194;28;20063;-70
2021/01/16 04:54:02;;;;;;;55.22;28.65;;;90.20;2176.00;;;;;;4956785;28;20044;-70
2021/01/16 04:56:34;;;;;;;57.38;32.33;;;90.30;2176.00;;;;;;4953661;28;20057;-70
2021/01/16 04:59:00;;;;;;;55.47;30.60;;;90.30;2176.00;;;;;;4943029;29;20036;-73
2021/01/16 05:01:27;;;;;;;55.53;31.48;;;90.40;2176.00;;;;;;4952839;28;20019;-69
2021/01/16 05:03:55;;;;;;;51.50;29.48;;;90.40;2176.00;;;;;;4895624;29;20134;-69
2021/01/16 05:06:24;;;;;;;57.47;31.75;;;90.40;2176.00;;;;;;4899110;29;20035;-69
2021/01/16 05:08:54;;;;;;;55.78;30.75;;;90.50;2176.00;;;;;;4920051;28;20039;-72
2021/01/16 05:11:25;;;;;;;48.05;27.30;;;90.40;2176.00;;;;;;4933242;28;20020;-73
2021/01/16 05:14:16;;;;;;;52.45;29.67;;;90.40;2176.00;;;;;;4913832;29;20032;-75
2021/01/16 05:16:55;;;;;;;56.55;29.90;;;90.40;2176.00;;;;;;4895357;29;20060;-74
2021/01/16 05:19:33;;;;;;;55.25;29.70;;;90.40;2176.00;;;;;;4906832;29;20036;-74
2021/01/16 05:22:00;;;;;;;73.95;40.40;;;90.50;2176.00;;;;;;4889536;29;20042;-74
2021/01/16 05:24:26;;;;;;;69.72;39.70;;;90.50;2176.00;;;;;;4910525;29;20798;-69
2021/01/16 05:27:06;;;;;;;67.03;35.92;;;90.40;2176.00;;;;;;4911181;29;20036;-74
2021/01/16 05:29:34;;;;;;;56.85;32.45;;;90.50;2176.00;;;;;;4914605;29;20503;-73
2021/01/16 05:32:01;;;;;;;55.25;31.75;;;90.40;2176.00;;;;;;4925093;29;20035;-71
2021/01/16 05:34:30;;;;;;;53.00;30.48;;;90.40;2176.00;;;;;;4933758;28;20036;-76
2021/01/16 05:36:56;;;;;;;52.13;30.05;;;90.50;2176.00;;;;;;4922262;28;20055;-67
2021/01/16 05:39:25;;;;;;;53.97;30.35;;;90.40;2176.00;;;;;;4907446;29;20126;-69
2021/01/16 05:41:59;;;;;;;56.53;29.20;;;115.70;2176.00;;;;;;4897619;29;20405;-70
2021/01/16 05:44:47;;;;;;;58.72;32.05;;;90.50;2176.00;;;;;;4894185;29;20020;-68
2021/01/16 05:47:13;;;;;;;59.78;33.60;;;90.30;2176.00;;;;;;4937363;28;20028;-72
2021/01/16 05:49:39;;;;;;;63.60;33.30;;;90.20;2176.00;;;;;;4942823;28;20043;-73
2021/01/16 05:52:08;;;;;;;55.63;30.67;;;90.10;2176.00;;;;;;4945627;29;20015;-73
2021/01/16 05:54:35;;;;;;;54.25;31.55;;;90.00;2176.00;;;;;;4904171;29;20044;-68
2021/01/16 05:57:04;;;;;;;48.38;28.02;;;89.90;2176.00;;;;;;4897219;29;20046;-69
2021/01/16 05:59:31;;;;;;;47.03;26.88;;;89.90;2176.00;;;;;;4899393;29;20056;-69
2021/01/16 06:02:02;;;;;;;44.72;26.48;;;89.80;2176.00;;;;;;4899759;29;20443;-67
2021/01/16 06:04:28;;;;;;;41.60;24.42;;;89.70;2176.00;;;;;;4921404;29;20028;-76
2021/01/16 06:07:05;;;;;;;50.80;29.48;;;89.60;2201.60;;;;;;4903227;29;20039;-67
2021/01/16 06:09:34;;;;;;;55.42;31.38;;;89.60;2201.60;;;;;;4894463;29;20017;-67
2021/01/16 06:12:04;;;;;;;46.17;27.52;;;89.60;2201.60;;;;;;4896348;29;20024;-67
2021/01/16 06:14:43;;;;;;;39.70;23.02;;;64.90;2201.60;;;;;;4897513;29;20023;-67
2021/01/16 06:17:19;;;;;;;51.53;31.17;;;64.80;2201.60;;;;;;4895830;29;20039;-68
2021/01/16 06:19:47;;;;;;;46.22;26.67;;;64.80;2201.60;;;;;;4925005;29;20035;-71
2021/01/16 06:22:23;;;;;;;36.67;23.13;;;64.80;2201.60;;;;;;4939288;29;20019;-71
2021/01/16 06:24:49;;;;;;;44.15;26.10;;;64.90;2201.60;;;;;;4953647;28;20023;-71
2021/01/16 06:27:30;;;;;;;40.75;25.15;;;89.60;2201.60;;;;;;4947886;28;20044;-74
2021/01/16 06:30:39;;;;;;;44.75;26.02;;;89.70;2176.00;;;;;;4937624;29;20042;-72
2021/01/16 06:33:19;;;;;;;47.17;28.13;;;89.80;2176.00;;;;;;4946119;28;20028;-73
2021/01/16 06:35:53;;;;;;;44.17;26.08;;;89.90;2176.00;;;;;;4941534;28;20035;-68
2021/01/16 06:38:33;;;;;;;46.35;25.80;;;89.90;2176.00;;;;;;4896341;29;20146;-70
2021/01/16 06:41:16;;;;;;;46.83;25.85;;;89.90;2176.00;;;;;;4897353;29;20032;-66
2021/01/16 06:43:46;;;;;;;40.42;23.48;;;89.90;2176.00;;;;;;4907802;29;20044;-74
2021/01/16 06:46:13;;;;;;;41.40;23.27;;;89.90;2176.00;;;;;;4925617;29;20122;-70
2021/01/16 06:48:44;;;;;;;53.90;30.65;;;89.60;2201.60;;;;;;4929871;28;20036;-75
2021/01/16 06:51:12;;;;;;;57.33;33.33;;;89.60;2201.60;;;;;;4923029;29;20080;-72
2021/01/16 06:53:38;;;;;;;44.65;28.35;;;89.60;2201.60;;;;;;4937545;28;20043;-72
2021/01/16 06:56:06;;;;;;;55.20;34.15;;;64.80;2201.60;;;;;;4907092;29;20023;-69
2021/01/16 06:58:55;;;;;;;43.70;26.17;;;64.80;2201.60;;;;;;4919950;28;20058;-73
2021/01/16 07:01:41;;;;;;;43.80;25.50;;;64.70;2201.60;;;;;;4901399;29;20076;-71
2021/01/16 07:04:12;;;;;;;53.47;32.80;;;64.60;2201.60;;;;;;4908558;29;20028;-75
2021/01/16 07:06:45;;;;;;;44.58;27.95;;;64.70;2201.60;;;;;;4902267;29;20138;-73
2021/01/16 07:09:21;;;;;;;38.88;23.83;;;64.60;2201.60;;;;;;4898454;29;20797;-74
2021/01/16 07:11:53;;;;;;;37.58;22.67;;;64.70;2201.60;;;;;;4905382;28;20047;-69
2021/01/16 07:14:21;;;;;;;41.60;22.88;;;64.80;2201.60;;;;;;4899191;29;20059;-69
2021/01/16 07:16:49;;;;;;;40.15;24.35;;;64.80;2201.60;;;;;;4925520;28;20016;-74
2021/01/16 07:19:22;;;;;;;43.85;24.13;;;64.90;2201.60;;;;;;4898958;29;20032;-73
2021/01/16 07:21:49;;;;;;;64.22;41.70;;;64.90;2201.60;;;;;;4900489;29;20575;-73
2021/01/16 07:24:17;;;;;;;81.57;39.97;;;64.90;2201.60;;;;;;4902409;29;20044;-74
2021/01/16 07:26:49;;;;;;;70.57;38.15;;;64.40;2201.60;;;;;;4898573;29;20051;-73
2021/01/16 07:29:16;;;;;;;49.10;26.70;;;64.10;2201.60;;;;;;4890147;29;20028;-73
2021/01/16 07:31:46;;;;;;;51.72;31.23;;;39.10;2201.60;;;;;;4884680;29;20040;-72
2021/01/16 07:34:13;;;;;;;40.53;23.90;;;39.00;2201.60;;;;;;4912133;29;20069;-69
2021/01/16 07:36:39;;;;;;;41.33;24.38;;;38.60;2201.60;;;;;;4902458;29;20016;-68
2021/01/16 07:39:10;;;;;;;51.58;33.03;;;38.50;2201.60;;;;;;4907752;29;20063;-77
2021/01/16 07:41:39;;;;;;;42.00;24.05;;;13.60;2201.60;;;;;;4934860;28;20028;-76
2021/01/16 07:44:17;;;;;;;46.97;28.88;;;13.40;2201.60;;;;;;4957650;28;20054;-75
2021/01/16 07:47:19;;;;;;;37.22;22.63;;;13.50;2201.60;;;;;;4928800;29;20036;-74
2021/01/16 07:49:53;;;;;;;39.70;24.98;;;13.40;2201.60;;;;;;4925858;28;20028;-73
2021/01/16 07:52:24;;;;;;;41.05;24.48;;;13.30;2201.60;;;;;;4887244;29;20058;-76
2021/01/16 07:55:07;;;;;;;38.25;24.65;;;13.30;2201.60;;;;;;4904277;29;20865;-68
2021/01/16 07:57:34;;;;;;;46.50;28.55;;;13.20;2201.60;;;;;;4899613;29;20652;-67
2021/01/16 08:00:08;;;;;;;40.83;24.70;;;13.30;2201.60;;;;;;4899320;29;20074;-67
2021/01/16 08:03:05;;;;;;;42.17;25.88;;;13.10;2201.60;;;;;;4900822;29;21010;-72
2021/01/16 08:05:45;;;;;;;39.22;24.77;;;13.30;2201.60;;;;;;4892743;29;20039;-67
2021/01/16 08:08:50;;;;;;;39.42;24.63;;;13.30;2176.00;;;;;;4901581;29;20130;-67
2021/01/16 08:11:25;;;;;;;39.63;24.33;;;13.50;2201.60;;;;;;4898664;29;20569;-68
2021/01/16 08:14:04;;;;;;;41.80;26.23;;;13.50;2201.60;;;;;;4901918;29;20114;-68
2021/01/16 08:16:29;;;;;;;43.63;26.15;;;13.10;2201.60;;;;;;4897664;29;20035;-68
2021/01/16 08:19:06;;;;;;;41.97;26.25;;;12.90;2176.00;;;;;;4902466;29;20083;-67
2021/01/16 08:21:33;;;;;;;50.92;27.48;;;0.10;2150.40;;;;;;4901977;29;20039;-68
2021/01/16 08:24:05;;;;;;;42.28;27.17;;;0.10;2124.80;;;;;;4902310;29;20028;-67
2021/01/16 08:26:31;;;;;;;47.75;30.02;;;0.20;2124.80;;;;;;4902007;29;20051;-68
2021/01/16 08:28:59;;;;;;;49.08;28.38;;;0.20;2099.20;;;;;;4898651;29;20082;-68
2021/01/16 08:31:29;;;;;;;46.72;28.98;;;0.30;2099.20;;;;;;4900734;29;20023;-67
2021/01/16 08:33:59;;;;;;;41.97;24.83;;;0.30;2099.20;;;;;;4899583;29;20454;-72
2021/01/16 08:36:28;;;;;;;47.42;28.63;;;0.50;2073.60;;;;;;4914639;29;20032;-77
2021/01/16 08:38:54;;;;;;;157.20;74.22;;;0.50;2073.60;;;;;;4917890;29;20035;-71
2021/01/16 08:41:26;;;;;;;42.35;27.25;;;0.60;2124.80;;;;;;4900232;28;20877;-72
2021/01/16 08:43:58;;;;;;;43.38;27.90;;;0.50;2073.60;;;;;;4903057;29;20886;-70
2021/01/16 08:46:33;;;;;;;35.67;23.40;;;0.30;2073.60;;;;;;4908160;29;20073;-73
2021/01/16 08:49:10;;;;;;;40.05;25.27;;;0.90;2022.40;;;;;;4902986;29;20027;-73
2021/01/16 08:51:41;;;;;;;38.72;24.30;;;0.50;2073.60;;;;;;4902677;29;20126;-69
2021/01/16 08:54:07;;;;;;;43.08;24.67;;;0.30;2124.80;;;;;;4896778;29;20781;-69
2021/01/16 08:56:33;;;;;;;42.30;25.92;;;0.30;2099.20;;;;;;4901746;29;20023;-70
2021/01/16 08:59:17;;;;;;;37.35;22.98;;;0.30;2124.80;;;;;;4901421;29;20075;-71
2021/01/16 09:01:54;;;;;;;41.97;25.52;;;0.10;2124.80;;;;;;4902719;29;20039;-71
2021/01/16 09:04:21;;;;;;;40.85;24.85;;;13.00;2176.00;;;;;;4900400;29;20795;-70
2021/01/16 09:06:48;;;;;;;38.30;23.65;;;12.90;2150.40;;;;;;4900195;29;20043;-68
2021/01/16 09:09:23;;;;;;;48.08;28.52;;;12.90;2176.00;;;;;;4901541;29;20090;-70
2021/01/16 09:12:40;;;;;;;54.55;32.47;;;13.10;2150.40;;;;;;4908807;29;20099;-68
2021/01/16 09:15:27;;;;;;;66.20;38.88;;;0.00;2201.60;;;;;;4818102;29;20096;-69
2021/01/16 09:18:07;;;;;;;36.45;22.52;;;0.10;2124.80;;;;;;4868189;29;20050;-68
2021/01/16 09:20:40;;;;;;;38.05;23.98;;;0.50;2150.40;;;;;;4870039;29;20046;-70
2021/01/16 09:23:27;;;;;;;37.20;24.13;;;0.40;2099.20;;;;;;4869014;29;20131;-74
2021/01/16 09:26:03;;;;;;;37.50;23.60;;;0.50;2124.80;;;;;;4850961;29;20460;-75
2021/01/16 09:28:54;;;;;;;36.05;22.50;;;0.30;2124.80;;;;;;4862659;29;20037;-72
2021/01/16 09:31:42;;;;;;;39.17;24.27;;;0.30;2150.40;;;;;;4851881;29;20042;-73
2021/01/16 09:34:17;;;;;;;41.28;25.10;;;0.10;2150.40;;;;;;4819426;29;20029;-69
2021/01/16 09:36:56;;;;;;;40.67;25.88;;;0.20;2150.40;;;;;;4828481;29;20617;-71
2021/01/16 09:39:27;;;;;;;39.72;25.15;;;0.40;2150.40;;;;;;4826632;29;20643;-77
2021/01/16 09:42:01;;;;;;;50.92;31.33;;;0.10;2150.40;;;;;;4857763;29;20426;-77
2021/01/16 09:45:17;;;;;;;49.78;28.77;;;0.00;2176.00;;;;;;4832313;29;20134;-76
2021/01/16 09:47:49;;;;;;;49.88;28.58;;;12.90;2176.00;;;;;;4761805;29;20079;-77
2021/01/16 09:50:38;;;;;;;36.95;22.50;;;12.90;2150.40;;;;;;4810703;29;20061;-72
2021/01/16 09:53:04;;;;;;;49.63;29.50;;;12.90;2176.00;;;;;;4826140;29;20037;-76
2021/01/16 09:55:31;;;;;;;46.20;26.90;;;12.90;2201.60;;;;;;4825376;29;20161;-76
2021/01/16 09:57:58;;;;;;;40.90;24.48;;;0.10;2150.40;;;;;;4857816;29;20109;-73
2021/01/16 10:00:27;;;;;;;41.65;25.20;;;12.90;2150.40;;;;;;4836398;29;20473;-75
2021/01/16 10:03:09;;;;;;;32.83;20.90;;;0.00;2201.60;;;;;;4810836;29;20605;-70
2021/01/16 10:05:40;;;;;;;38.50;23.13;;;0.00;2150.40;;;;;;4819522;29;20038;-71
2021/01/16 10:08:08;;;;;;;41.13;24.33;;;0.20;2124.80;;;;;;4825272;29;20493;-73
2021/01/16 10:10:44;;;;;;;31.75;18.63;;;0.30;2099.20;;;;;;4827811;29;20022;-69
2021/01/16 10:13:11;;;;;;;31.02;19.50;;;0.20;2048.00;;;;;;4830437;29;20084;-73
2021/01/16 10:15:49;;;;;;;34.10;20.80;;;0.30;2099.20;;;;;;4821588;29;20097;-70
2021/01/16 10:18:25;;;;;;;31.50;19.95;;;13.10;2099.20;;;;;;4840880;29;20062;-74
2021/01/16 10:21:00;;;;;;;32.38;20.45;;;0.30;2073.60;;;;;;4871654;29;20028;-70
2021/01/16 10:23:28;;;;;;;32.10;21.33;;;0.50;2099.20;;;;;;4931766;29;20441;-70
2021/01/16 10:26:04;;;;;;;34.15;21.38;;;0.50;2073.60;;;;;;4935102;29;20181;-69
2021/01/16 10:28:36;;;;;;;34.30;21.65;;;0.70;2048.00;;;;;;4935357;29;20039;-71
2021/01/16 10:31:04;;;;;;;33.95;20.33;;;25.70;2048.00;;;;;;4936295;29;20082;-70
2021/01/16 10:33:38;;;;;;;29.25;18.00;;;25.90;1996.80;;;;;;4928046;29;20032;-70
2021/01/16 10:36:15;;;;;;;28.45;17.48;;;0.90;2022.40;;;;;;4934627;29;20040;-70
2021/01/16 10:38:43;;;;;;;27.70;18.52;;;0.60;1971.20;;;;;;4934775;29;20024;-69
2021/01/16 10:41:11;;;;;;;28.77;17.63;;;0.60;1996.80;;;;;;4934074;29;20058;-70
2021/01/16 10:43:38;;;;;;;25.17;16.58;;;0.60;1996.80;;;;;;4934588;29;20544;-69
2021/01/16 10:46:11;;;;;;;30.33;18.70;;;0.90;1920.00;;;;;;4934143;29;20039;-69
2021/01/16 10:48:38;;;;;;;28.33;17.95;;;0.90;1971.20;;;;;;4905643;29;20043;-70
2021/01/16 10:51:09;;;;;;;32.17;19.75;;;0.90;1945.60;;;;;;4934254;29;20035;-69
2021/01/16 10:53:40;;;;;;;29.15;17.58;;;0.80;1996.80;;;;;;4921598;29;20504;-69
2021/01/16 10:56:32;;;;;;;33.40;21.17;;;0.50;1971.20;;;;;;4933869;29;20456;-69
2021/01/16 10:59:09;;;;;;;27.17;17.23;;;0.20;2048.00;;;;;;4857249;29;20045;-69
2021/01/16 11:01:47;;;;;;;24.80;15.50;;;0.10;2048.00;;;;;;4856017;29;20041;-69
2021/01/16 11:04:20;;;;;;;33.60;18.25;;;0.00;2022.40;;;;;;4857542;29;20045;-69
2021/01/16 11:06:55;;;;;;;28.95;16.75;;;0.10;2022.40;;;;;;4858269;29;20065;-69
2021/01/16 11:09:36;;;;;;;25.52;16.60;;;0.20;2022.40;;;;;;4857908;29;20033;-69
2021/01/16 11:12:14;;;;;;;26.55;16.40;;;0.50;1996.80;;;;;;4852544;29;20393;-68
2021/01/16 11:14:41;;;;;;;28.02;18.58;;;0.60;1945.60;;;;;;4841166;29;20409;-69
2021/01/16 11:17:09;;;;;;;26.00;17.88;;;0.70;1971.20;;;;;;4859332;29;20427;-69
2021/01/16 11:19:41;;;;;;;26.27;16.27;;;0.70;1945.60;;;;;;4857652;29;20029;-69
2021/01/16 11:22:12;;;;;;;26.60;15.98;;;0.70;1920.00;;;;;;4854526;29;20029;-69
2021/01/16 11:24:53;;;;;;;25.92;15.50;;;0.70;1945.60;;;;;;4853307;29;20028;-68
2021/01/16 11:27:27;;;;;;;22.80;15.45;;;0.60;1945.60;;;;;;4856019;29;20064;-68
2021/01/16 11:30:20;;;;;;;24.95;15.43;;;0.70;1945.60;;;;;;4853147;29;20123;-68
2021/01/16 11:32:53;;;;;;;28.45;16.85;;;0.80;1920.00;;;;;;4765162;30;20510;-69
2021/01/16 11:35:20;;;;;;;28.33;16.50;;;0.90;1945.60;;;;;;4790153;29;20075;-69
2021/01/16 11:37:49;;;;;;;28.77;17.40;;;25.70;1920.00;;;;;;4815917;29;20038;-70
2021/01/16 11:40:31;;;;;;;28.38;17.95;;;26.10;1945.60;;;;;;4830594;29;20041;-70
2021/01/16 11:42:58;;;;;;;69.05;41.55;;;26.30;1843.20;;;;;;4841238;29;20041;-69
2021/01/16 11:45:25;;;;;;;27.02;18.60;;;26.40;1843.20;;;;;;4841618;29;20045;-69
2021/01/16 11:47:58;;;;;;;28.48;18.33;;;26.50;1868.80;;;;;;4841565;29;20393;-69
2021/01/16 11:50:27;;;;;;;24.92;16.10;;;51.20;1868.80;;;;;;4841389;29;20046;-69
2021/01/16 11:52:52;;;;;;;34.80;18.52;;;51.30;1843.20;;;;;;4836518;29;20172;-69
2021/01/16 11:55:20;;;;;;;29.23;16.75;;;51.50;1894.40;;;;;;4840734;29;20038;-70
2021/01/16 11:57:46;;;;;;;26.08;17.48;;;51.40;1843.20;;;;;;4841629;29;20042;-70
2021/01/16 12:00:17;;;;;;;21.17;13.98;;;51.20;1843.20;;;;;;4840586;29;20097;-70
2021/01/16 12:02:49;;;;;;;27.92;16.58;;;26.00;1792.00;;;;;;4841261;29;20097;-70
2021/01/16 12:05:18;;;;;;;23.65;15.43;;;25.70;1868.80;;;;;;4840538;29;20638;-69
2021/01/16 12:07:49;;;;;;;27.90;16.50;;;0.90;1894.40;;;;;;4841710;29;20042;-70
2021/01/16 12:10:23;;;;;;;29.45;17.85;;;0.60;1945.60;;;;;;4911232;29;20127;-70
2021/01/16 12:12:49;;;;;;;26.67;16.58;;;0.40;1996.80;;;;;;4936623;29;20091;-70
2021/01/16 12:15:22;;;;;;;29.67;18.80;;;0.10;1996.80;;;;;;4936728;29;20032;-70
2021/01/16 12:17:50;;;;;;;29.30;18.42;;;12.90;2048.00;;;;;;4936017;29;20019;-70
2021/01/16 12:20:17;;;;;;;27.63;17.92;;;12.90;2048.00;;;;;;4935840;29;20039;-69
2021/01/16 12:22:44;;;;;;;36.03;21.30;;;0.00;2073.60;;;;;;4936173;29;20031;-70
2021/01/16 12:25:13;;;;;;;30.30;17.17;;;0.00;2073.60;;;;;;4936272;29;20042;-71
2021/01/16 12:27:58;;;;;;;30.02;17.85;;;0.40;1996.80;;;;;;4936793;29;20028;-72
2021/01/16 12:30:33;;;;;;;32.58;19.83;;;0.70;1920.00;;;;;;4936647;29;20106;-70
2021/01/16 12:33:02;;;;;;;34.97;19.30;;;0.70;1945.60;;;;;;4935622;29;20028;-70